sensor_id;sensor_type;location;lat;lon;timestamp;temperature;humidity
3660;DHT22;1846;51.482;7.224;2023-05-24T00:00:09;10.30;99.90
3660;DHT22;1846;51.482;7.224;2023-05-24T00:02:38;10.30;99.90
3660;DHT22;1846;51.482;7.224;2023-05-24T00:05:07;10.30;99.90
3660;DHT22;1846;51.482;7.224;2023-05-24T00:07:37;10.20;99.90
3660;DHT22;1846;51.482;7.224;2023-05-24T00:10:04;10.30;99.90
3660;DHT22;1846;51.482;7.224;2023-05-24T00:12:31;10.30;99.90
3660;DHT22;1846;51.482;7.224;2023-05-24T00:14:58;10.30;99.90
3660;DHT22;1846;51.482;7.224;2023-05-24T00:17:25;10.20;99.90
3660;DHT22;1846;51.482;7.224;2023-05-24T00:19:54;10.10;99.90
3660;DHT22;1846;51.482;7.224;2023-05-24T00:22:21;10.10;99.90
3660;DHT22;1846;51.482;7.224;2023-05-24T00:24:50;10.00;99.90
3660;DHT22;1846;51.482;7.224;2023-05-24T00:27:17;10.00;99.90
3660;DHT22;1846;51.482;7.224;2023-05-24T00:29:44;9.90;99.90
3660;DHT22;1846;51.482;7.224;2023-05-24T00:32:11;9.90;99.90
3660;DHT22;1846;51.482;7.224;2023-05-24T00:34:38;9.90;99.90
3660;DHT22;1846;51.482;7.224;2023-05-24T00:37:04;9.90;99.90
3660;DHT22;1846;51.482;7.224;2023-05-24T00:39:32;9.80;99.90
3660;DHT22;1846;51.482;7.224;2023-05-24T00:42:01;9.90;99.90
3660;DHT22;1846;51.482;7.224;2023-05-24T00:44:28;9.90;99.90
3660;DHT22;1846;51.482;7.224;2023-05-24T00:46:55;9.90;99.90
3660;DHT22;1846;51.482;7.224;2023-05-24T00:49:22;9.90;99.90
3660;DHT22;1846;51.482;7.224;2023-05-24T00:51:50;9.80;99.90
3660;DHT22;1846;51.482;7.224;2023-05-24T00:54:18;9.70;99.90
3660;DHT22;1846;51.482;7.224;2023-05-24T00:56:45;9.60;99.90
3660;DHT22;1846;51.482;7.224;2023-05-24T00:59:14;9.50;99.90
3660;DHT22;1846;51.482;7.224;2023-05-24T01:01:41;9.40;99.90
3660;DHT22;1846;51.482;7.224;2023-05-24T01:04:11;9.40;99.90
3660;DHT22;1846;51.482;7.224;2023-05-24T01:06:46;9.40;99.90
3660;DHT22;1846;51.482;7.224;2023-05-24T01:09:23;9.40;99.90
3660;DHT22;1846;51.482;7.224;2023-05-24T01:12:02;9.40;99.90
3660;DHT22;1846;51.482;7.224;2023-05-24T01:14:40;9.40;99.90
3660;DHT22;1846;51.482;7.224;2023-05-24T01:17:13;9.40;1.00
3660;DHT22;1846;51.482;7.224;2023-05-24T01:19:53;9.20;1.00
3660;DHT22;1846;51.482;7.224;2023-05-24T01:25:22;9.10;1.00
3660;DHT22;1846;51.482;7.224;2023-05-24T01:27:53;9.10;39.10
3660;DHT22;1846;51.482;7.224;2023-05-24T01:30:21;9.00;99.90
3660;DHT22;1846;51.482;7.224;2023-05-24T01:32:49;9.00;99.90
3660;DHT22;1846;51.482;7.224;2023-05-24T01:35:16;9.00;99.90
3660;DHT22;1846;51.482;7.224;2023-05-24T01:37:43;8.90;99.90
3660;DHT22;1846;51.482;7.224;2023-05-24T01:40:11;8.90;99.90
3660;DHT22;1846;51.482;7.224;2023-05-24T01:42:43;8.90;99.90
3660;DHT22;1846;51.482;7.224;2023-05-24T01:45:16;9.00;29.00
3660;DHT22;1846;51.482;7.224;2023-05-24T01:47:55;9.00;1.00
3660;DHT22;1846;51.482;7.224;2023-05-24T01:50:27;9.00;1.00
3660;DHT22;1846;51.482;7.224;2023-05-24T01:52:58;8.90;10.00
3660;DHT22;1846;51.482;7.224;2023-05-24T01:55:26;8.80;99.90
3660;DHT22;1846;51.482;7.224;2023-05-24T01:57:59;8.80;99.90
3660;DHT22;1846;51.482;7.224;2023-05-24T02:00:29;8.70;99.90
3660;DHT22;1846;51.482;7.224;2023-05-24T02:02:57;8.70;99.90
3660;DHT22;1846;51.482;7.224;2023-05-24T02:05:24;8.70;99.90
3660;DHT22;1846;51.482;7.224;2023-05-24T02:07:51;8.70;99.90
3660;DHT22;1846;51.482;7.224;2023-05-24T02:10:18;8.70;99.90
3660;DHT22;1846;51.482;7.224;2023-05-24T02:12:45;8.60;1.00
3660;DHT22;1846;51.482;7.224;2023-05-24T02:15:12;8.60;1.00
3660;DHT22;1846;51.482;7.224;2023-05-24T02:17:41;8.60;1.00
3660;DHT22;1846;51.482;7.224;2023-05-24T02:20:11;8.50;90.10
3660;DHT22;1846;51.482;7.224;2023-05-24T02:22:38;8.50;99.90
3660;DHT22;1846;51.482;7.224;2023-05-24T02:25:06;8.40;99.90
3660;DHT22;1846;51.482;7.224;2023-05-24T02:27:33;8.40;99.90
3660;DHT22;1846;51.482;7.224;2023-05-24T02:30:00;8.30;1.00
3660;DHT22;1846;51.482;7.224;2023-05-24T02:32:27;8.30;1.00
3660;DHT22;1846;51.482;7.224;2023-05-24T02:34:55;8.30;1.00
3660;DHT22;1846;51.482;7.224;2023-05-24T02:37:23;8.30;99.90
3660;DHT22;1846;51.482;7.224;2023-05-24T02:39:50;8.30;99.90
3660;DHT22;1846;51.482;7.224;2023-05-24T02:42:17;8.40;1.00
3660;DHT22;1846;51.482;7.224;2023-05-24T02:44:44;8.30;1.00
3660;DHT22;1846;51.482;7.224;2023-05-24T02:47:13;8.30;99.90
3660;DHT22;1846;51.482;7.224;2023-05-24T02:49:40;8.30;99.90
3660;DHT22;1846;51.482;7.224;2023-05-24T02:52:08;8.30;99.90
3660;DHT22;1846;51.482;7.224;2023-05-24T02:54:38;8.30;1.00
3660;DHT22;1846;51.482;7.224;2023-05-24T02:57:05;8.30;1.00
3660;DHT22;1846;51.482;7.224;2023-05-24T02:59:32;8.30;1.00
3660;DHT22;1846;51.482;7.224;2023-05-24T03:01:59;8.30;1.00
3660;DHT22;1846;51.482;7.224;2023-05-24T03:04:26;8.30;1.00
3660;DHT22;1846;51.482;7.224;2023-05-24T03:06:53;8.40;30.80
3660;DHT22;1846;51.482;7.224;2023-05-24T03:09:22;8.40;1.00
3660;DHT22;1846;51.482;7.224;2023-05-24T03:11:49;8.40;99.90
3660;DHT22;1846;51.482;7.224;2023-05-24T03:14:17;8.40;99.90
3660;DHT22;1846;51.482;7.224;2023-05-24T03:16:47;8.50;1.00
3660;DHT22;1846;51.482;7.224;2023-05-24T03:19:14;8.50;99.90
3660;DHT22;1846;51.482;7.224;2023-05-24T03:21:41;8.60;99.90
3660;DHT22;1846;51.482;7.224;2023-05-24T03:24:08;8.60;1.00
3660;DHT22;1846;51.482;7.224;2023-05-24T03:26:39;8.50;1.00
3660;DHT22;1846;51.482;7.224;2023-05-24T03:29:05;8.50;84.10
3660;DHT22;1846;51.482;7.224;2023-05-24T03:31:32;8.50;44.20
3660;DHT22;1846;51.482;7.224;2023-05-24T03:34:00;8.50;39.50
3660;DHT22;1846;51.482;7.224;2023-05-24T03:36:27;8.60;90.30
3660;DHT22;1846;51.482;7.224;2023-05-24T03:38:54;8.50;99.90
3660;DHT22;1846;51.482;7.224;2023-05-24T03:41:22;8.60;48.70
3660;DHT22;1846;51.482;7.224;2023-05-24T03:43:51;8.70;1.00
3660;DHT22;1846;51.482;7.224;2023-05-24T03:46:18;8.70;1.00
3660;DHT22;1846;51.482;7.224;2023-05-24T03:48:45;8.50;1.00
3660;DHT22;1846;51.482;7.224;2023-05-24T03:51:12;8.50;86.20
3660;DHT22;1846;51.482;7.224;2023-05-24T03:53:39;8.40;99.90
3660;DHT22;1846;51.482;7.224;2023-05-24T03:56:06;8.50;99.90
3660;DHT22;1846;51.482;7.224;2023-05-24T03:58:33;8.50;1.00
3660;DHT22;1846;51.482;7.224;2023-05-24T04:01:01;8.50;1.00
3660;DHT22;1846;51.482;7.224;2023-05-24T04:03:28;8.60;99.90
3660;DHT22;1846;51.482;7.224;2023-05-24T04:05:58;8.60;99.90
3660;DHT22;1846;51.482;7.224;2023-05-24T04:08:25;8.60;99.90
3660;DHT22;1846;51.482;7.224;2023-05-24T04:10:52;8.60;99.90
3660;DHT22;1846;51.482;7.224;2023-05-24T04:13:19;8.60;99.90
3660;DHT22;1846;51.482;7.224;2023-05-24T04:15:48;8.60;99.90
3660;DHT22;1846;51.482;7.224;2023-05-24T04:18:16;8.70;99.90
3660;DHT22;1846;51.482;7.224;2023-05-24T04:20:43;8.70;1.00
3660;DHT22;1846;51.482;7.224;2023-05-24T04:23:10;8.70;99.90
3660;DHT22;1846;51.482;7.224;2023-05-24T04:25:37;8.70;99.90
3660;DHT22;1846;51.482;7.224;2023-05-24T04:28:04;8.80;1.00
3660;DHT22;1846;51.482;7.224;2023-05-24T04:30:32;8.90;99.90
3660;DHT22;1846;51.482;7.224;2023-05-24T04:33:01;9.00;99.90
3660;DHT22;1846;51.482;7.224;2023-05-24T04:35:29;9.10;99.90
3660;DHT22;1846;51.482;7.224;2023-05-24T04:37:56;9.20;1.00
3660;DHT22;1846;51.482;7.224;2023-05-24T04:40:27;9.30;1.00
3660;DHT22;1846;51.482;7.224;2023-05-24T04:42:54;9.30;1.00
3660;DHT22;1846;51.482;7.224;2023-05-24T04:45:21;9.30;1.00
3660;DHT22;1846;51.482;7.224;2023-05-24T04:50:23;9.30;1.00
3660;DHT22;1846;51.482;7.224;2023-05-24T04:52:52;9.40;1.00
3660;DHT22;1846;51.482;7.224;2023-05-24T04:55:20;9.40;1.00
3660;DHT22;1846;51.482;7.224;2023-05-24T04:57:47;9.40;1.00
3660;DHT22;1846;51.482;7.224;2023-05-24T05:00:15;9.40;1.00
3660;DHT22;1846;51.482;7.224;2023-05-24T05:02:42;9.50;1.00
3660;DHT22;1846;51.482;7.224;2023-05-24T05:05:09;9.70;1.00
3660;DHT22;1846;51.482;7.224;2023-05-24T05:07:37;9.70;99.90
3660;DHT22;1846;51.482;7.224;2023-05-24T05:10:08;9.70;1.00
3660;DHT22;1846;51.482;7.224;2023-05-24T05:12:36;9.70;1.00
3660;DHT22;1846;51.482;7.224;2023-05-24T05:15:09;9.80;1.00
3660;DHT22;1846;51.482;7.224;2023-05-24T05:17:45;9.80;1.00
3660;DHT22;1846;51.482;7.224;2023-05-24T05:35:44;10.40;93.00
3660;DHT22;1846;51.482;7.224;2023-05-24T05:38:12;10.40;3.60
3660;DHT22;1846;51.482;7.224;2023-05-24T05:40:39;10.40;17.70
3660;DHT22;1846;51.482;7.224;2023-05-24T05:43:07;10.40;9.00
3660;DHT22;1846;51.482;7.224;2023-05-24T05:45:34;10.50;1.00
3660;DHT22;1846;51.482;7.224;2023-05-24T05:54:02;10.60;1.00
3660;DHT22;1846;51.482;7.224;2023-05-24T05:56:29;10.70;1.00
3660;DHT22;1846;51.482;7.224;2023-05-24T05:58:58;10.70;1.00
3660;DHT22;1846;51.482;7.224;2023-05-24T06:01:25;10.70;1.00
3660;DHT22;1846;51.482;7.224;2023-05-24T06:03:52;10.80;1.00
3660;DHT22;1846;51.482;7.224;2023-05-24T06:06:19;10.90;1.00
3660;DHT22;1846;51.482;7.224;2023-05-24T06:08:46;11.10;1.00
3660;DHT22;1846;51.482;7.224;2023-05-24T06:21:29;11.60;99.90
3660;DHT22;1846;51.482;7.224;2023-05-24T06:23:56;11.70;99.90
3660;DHT22;1846;51.482;7.224;2023-05-24T06:26:24;11.70;99.90
3660;DHT22;1846;51.482;7.224;2023-05-24T06:31:31;11.90;99.90
3660;DHT22;1846;51.482;7.224;2023-05-24T06:33:59;11.80;99.90
3660;DHT22;1846;51.482;7.224;2023-05-24T06:42:17;11.90;99.90
3660;DHT22;1846;51.482;7.224;2023-05-24T06:47:43;12.10;99.90
3660;DHT22;1846;51.482;7.224;2023-05-24T06:55:40;12.20;99.90
3660;DHT22;1846;51.482;7.224;2023-05-24T06:58:45;12.30;99.90
3660;DHT22;1846;51.482;7.224;2023-05-24T07:19:14;12.90;99.90
3660;DHT22;1846;51.482;7.224;2023-05-24T07:21:41;13.00;99.90
3660;DHT22;1846;51.482;7.224;2023-05-24T07:24:08;13.00;99.90
3660;DHT22;1846;51.482;7.224;2023-05-24T07:26:36;13.10;99.90
3660;DHT22;1846;51.482;7.224;2023-05-24T07:29:04;13.10;99.90
3660;DHT22;1846;51.482;7.224;2023-05-24T07:37:51;12.70;99.90
3660;DHT22;1846;51.482;7.224;2023-05-24T07:40:19;12.70;99.90
3660;DHT22;1846;51.482;7.224;2023-05-24T07:42:49;12.80;99.90
3660;DHT22;1846;51.482;7.224;2023-05-24T07:45:16;12.80;99.90
3660;DHT22;1846;51.482;7.224;2023-05-24T07:52:58;13.40;99.90
3660;DHT22;1846;51.482;7.224;2023-05-24T07:58:23;13.60;99.90
3660;DHT22;1846;51.482;7.224;2023-05-24T08:03:30;13.70;99.90
3660;DHT22;1846;51.482;7.224;2023-05-24T08:08:42;13.80;99.90
3660;DHT22;1846;51.482;7.224;2023-05-24T08:11:38;13.80;99.90
3660;DHT22;1846;51.482;7.224;2023-05-24T08:19:05;14.00;99.90
3660;DHT22;1846;51.482;7.224;2023-05-24T08:24:10;14.00;99.90
3660;DHT22;1846;51.482;7.224;2023-05-24T08:26:40;13.80;99.50
3660;DHT22;1846;51.482;7.224;2023-05-24T08:35:38;13.70;98.60
3660;DHT22;1846;51.482;7.224;2023-05-24T08:43:19;13.50;99.90
3660;DHT22;1846;51.482;7.224;2023-05-24T08:45:48;13.70;99.90
3660;DHT22;1846;51.482;7.224;2023-05-24T08:53:41;14.30;88.60
3660;DHT22;1846;51.482;7.224;2023-05-24T09:04:58;14.60;94.00
3660;DHT22;1846;51.482;7.224;2023-05-24T09:18:36;15.00;88.60
3660;DHT22;1846;51.482;7.224;2023-05-24T09:21:08;15.10;86.40
3660;DHT22;1846;51.482;7.224;2023-05-24T09:26:30;15.40;80.10
3660;DHT22;1846;51.482;7.224;2023-05-24T09:28:57;15.40;70.10
3660;DHT22;1846;51.482;7.224;2023-05-24T09:31:31;15.10;73.60
3660;DHT22;1846;51.482;7.224;2023-05-24T09:33:59;15.10;80.30
3660;DHT22;1846;51.482;7.224;2023-05-24T09:36:29;15.20;78.20
3660;DHT22;1846;51.482;7.224;2023-05-24T09:49:22;15.20;60.60
3660;DHT22;1846;51.482;7.224;2023-05-24T09:51:51;15.00;56.80
3660;DHT22;1846;51.482;7.224;2023-05-24T09:56:54;15.10;56.40
3660;DHT22;1846;51.482;7.224;2023-05-24T09:59:22;15.20;55.50
3660;DHT22;1846;51.482;7.224;2023-05-24T10:01:50;15.40;59.50
3660;DHT22;1846;51.482;7.224;2023-05-24T10:04:31;15.60;54.60
3660;DHT22;1846;51.482;7.224;2023-05-24T10:09:37;15.90;51.70
3660;DHT22;1846;51.482;7.224;2023-05-24T10:12:06;16.00;51.40
3660;DHT22;1846;51.482;7.224;2023-05-24T10:14:34;16.20;54.50
3660;DHT22;1846;51.482;7.224;2023-05-24T10:20:17;16.30;52.10
3660;DHT22;1846;51.482;7.224;2023-05-24T10:22:46;16.30;48.00
3660;DHT22;1846;51.482;7.224;2023-05-24T10:28:11;16.10;47.00
3660;DHT22;1846;51.482;7.224;2023-05-24T10:33:24;15.90;47.40
3660;DHT22;1846;51.482;7.224;2023-05-24T10:35:52;15.80;45.40
3660;DHT22;1846;51.482;7.224;2023-05-24T10:46:36;15.70;43.70
3660;DHT22;1846;51.482;7.224;2023-05-24T10:50:27;15.80;44.10
3660;DHT22;1846;51.482;7.224;2023-05-24T10:56:23;15.50;44.10
3660;DHT22;1846;51.482;7.224;2023-05-24T10:58:59;15.60;47.00
3660;DHT22;1846;51.482;7.224;2023-05-24T11:01:31;15.90;48.70
3660;DHT22;1846;51.482;7.224;2023-05-24T11:06:47;16.60;47.40
3660;DHT22;1846;51.482;7.224;2023-05-24T11:09:14;16.90;47.80
3660;DHT22;1846;51.482;7.224;2023-05-24T11:11:46;16.90;45.40
3660;DHT22;1846;51.482;7.224;2023-05-24T11:16:49;16.20;40.60
3660;DHT22;1846;51.482;7.224;2023-05-24T11:19:18;16.10;40.50
3660;DHT22;1846;51.482;7.224;2023-05-24T11:21:49;16.10;40.60
3660;DHT22;1846;51.482;7.224;2023-05-24T11:29:39;16.10;39.20
3660;DHT22;1846;51.482;7.224;2023-05-24T11:32:07;16.00;40.50
3660;DHT22;1846;51.482;7.224;2023-05-24T11:34:34;15.90;40.40
3660;DHT22;1846;51.482;7.224;2023-05-24T11:37:04;15.90;40.10
3660;DHT22;1846;51.482;7.224;2023-05-24T11:39:34;15.80;40.20
3660;DHT22;1846;51.482;7.224;2023-05-24T11:42:04;15.70;40.10
3660;DHT22;1846;51.482;7.224;2023-05-24T11:44:32;15.60;40.20
3660;DHT22;1846;51.482;7.224;2023-05-24T11:47:00;15.50;39.90
3660;DHT22;1846;51.482;7.224;2023-05-24T11:49:29;15.40;39.70
3660;DHT22;1846;51.482;7.224;2023-05-24T11:52:00;15.40;40.30
3660;DHT22;1846;51.482;7.224;2023-05-24T11:54:29;15.40;43.00
3660;DHT22;1846;51.482;7.224;2023-05-24T11:56:59;15.40;43.60
3660;DHT22;1846;51.482;7.224;2023-05-24T11:59:29;15.40;43.50
3660;DHT22;1846;51.482;7.224;2023-05-24T12:05:06;15.30;44.30
3660;DHT22;1846;51.482;7.224;2023-05-24T12:07:35;15.20;42.50
3660;DHT22;1846;51.482;7.224;2023-05-24T12:10:05;15.20;43.50
3660;DHT22;1846;51.482;7.224;2023-05-24T12:12:32;15.30;45.30
3660;DHT22;1846;51.482;7.224;2023-05-24T12:14:59;15.40;45.30
3660;DHT22;1846;51.482;7.224;2023-05-24T12:17:26;15.50;44.80
3660;DHT22;1846;51.482;7.224;2023-05-24T12:19:54;15.70;45.10
3660;DHT22;1846;51.482;7.224;2023-05-24T12:22:26;15.70;45.00
3660;DHT22;1846;51.482;7.224;2023-05-24T12:24:56;15.90;47.90
3660;DHT22;1846;51.482;7.224;2023-05-24T12:27:26;16.10;48.10
3660;DHT22;1846;51.482;7.224;2023-05-24T12:29:55;16.30;49.90
3660;DHT22;1846;51.482;7.224;2023-05-24T12:32:22;16.80;49.90
3660;DHT22;1846;51.482;7.224;2023-05-24T12:34:49;17.20;52.30
3660;DHT22;1846;51.482;7.224;2023-05-24T12:37:16;17.30;50.00
3660;DHT22;1846;51.482;7.224;2023-05-24T12:40:17;17.40;48.30
3660;DHT22;1846;51.482;7.224;2023-05-24T12:42:49;17.30;49.30
3660;DHT22;1846;51.482;7.224;2023-05-24T12:45:17;17.30;47.40
3660;DHT22;1846;51.482;7.224;2023-05-24T12:47:49;17.10;44.40
3660;DHT22;1846;51.482;7.224;2023-05-24T12:50:17;17.00;43.30
3660;DHT22;1846;51.482;7.224;2023-05-24T12:52:44;16.80;43.20
3660;DHT22;1846;51.482;7.224;2023-05-24T12:55:13;16.60;44.60
3660;DHT22;1846;51.482;7.224;2023-05-24T12:57:40;16.50;44.30
3660;DHT22;1846;51.482;7.224;2023-05-24T13:00:10;16.50;45.70
3660;DHT22;1846;51.482;7.224;2023-05-24T13:02:39;16.60;45.80
3660;DHT22;1846;51.482;7.224;2023-05-24T13:05:07;16.70;43.80
3660;DHT22;1846;51.482;7.224;2023-05-24T13:07:35;16.80;44.30
3660;DHT22;1846;51.482;7.224;2023-05-24T13:10:02;17.00;43.00
3660;DHT22;1846;51.482;7.224;2023-05-24T13:12:29;17.00;42.60
3660;DHT22;1846;51.482;7.224;2023-05-24T13:14:56;17.20;43.20
3660;DHT22;1846;51.482;7.224;2023-05-24T13:17:24;17.20;42.40
3660;DHT22;1846;51.482;7.224;2023-05-24T13:19:51;17.10;40.60
3660;DHT22;1846;51.482;7.224;2023-05-24T13:22:19;17.10;42.60
3660;DHT22;1846;51.482;7.224;2023-05-24T13:24:46;17.20;43.10
3660;DHT22;1846;51.482;7.224;2023-05-24T13:27:15;17.10;41.80
3660;DHT22;1846;51.482;7.224;2023-05-24T13:29:42;16.90;41.10
3660;DHT22;1846;51.482;7.224;2023-05-24T13:32:10;17.00;42.60
3660;DHT22;1846;51.482;7.224;2023-05-24T13:34:38;16.80;41.70
3660;DHT22;1846;51.482;7.224;2023-05-24T13:37:05;16.90;42.80
3660;DHT22;1846;51.482;7.224;2023-05-24T13:39:33;17.00;43.50
3660;DHT22;1846;51.482;7.224;2023-05-24T13:42:01;17.10;45.00
3660;DHT22;1846;51.482;7.224;2023-05-24T13:44:28;17.20;44.50
3660;DHT22;1846;51.482;7.224;2023-05-24T13:46:55;17.40;44.50
3660;DHT22;1846;51.482;7.224;2023-05-24T13:49:22;17.40;45.30
3660;DHT22;1846;51.482;7.224;2023-05-24T13:51:51;17.40;44.90
3660;DHT22;1846;51.482;7.224;2023-05-24T13:54:18;17.40;43.20
3660;DHT22;1846;51.482;7.224;2023-05-24T13:56:46;17.50;43.20
3660;DHT22;1846;51.482;7.224;2023-05-24T13:59:14;17.50;44.10
3660;DHT22;1846;51.482;7.224;2023-05-24T14:01:42;17.50;43.10
3660;DHT22;1846;51.482;7.224;2023-05-24T14:04:10;17.40;43.90
3660;DHT22;1846;51.482;7.224;2023-05-24T14:06:37;17.20;41.90
3660;DHT22;1846;51.482;7.224;2023-05-24T14:09:05;17.10;41.00
3660;DHT22;1846;51.482;7.224;2023-05-24T14:11:33;17.00;40.80
3660;DHT22;1846;51.482;7.224;2023-05-24T14:14:00;17.10;41.10
3660;DHT22;1846;51.482;7.224;2023-05-24T14:16:27;17.10;41.20
3660;DHT22;1846;51.482;7.224;2023-05-24T14:18:54;16.90;41.70
3660;DHT22;1846;51.482;7.224;2023-05-24T14:21:22;16.90;42.70
3660;DHT22;1846;51.482;7.224;2023-05-24T14:23:51;16.80;43.80
3660;DHT22;1846;51.482;7.224;2023-05-24T14:26:19;16.80;43.90
3660;DHT22;1846;51.482;7.224;2023-05-24T14:28:48;16.90;44.50
3660;DHT22;1846;51.482;7.224;2023-05-24T14:31:15;17.10;43.70
3660;DHT22;1846;51.482;7.224;2023-05-24T14:33:42;17.10;43.40
3660;DHT22;1846;51.482;7.224;2023-05-24T14:36:09;17.00;42.00
3660;DHT22;1846;51.482;7.224;2023-05-24T14:38:36;16.90;42.30
3660;DHT22;1846;51.482;7.224;2023-05-24T14:41:03;16.90;45.00
3660;DHT22;1846;51.482;7.224;2023-05-24T14:43:32;17.10;46.20
3660;DHT22;1846;51.482;7.224;2023-05-24T14:45:59;17.20;43.80
3660;DHT22;1846;51.482;7.224;2023-05-24T14:48:26;17.10;45.80
3660;DHT22;1846;51.482;7.224;2023-05-24T14:50:53;17.10;45.70
3660;DHT22;1846;51.482;7.224;2023-05-24T14:53:20;17.10;45.50
3660;DHT22;1846;51.482;7.224;2023-05-24T14:55:47;17.20;45.40
3660;DHT22;1846;51.482;7.224;2023-05-24T14:58:14;17.30;45.30
3660;DHT22;1846;51.482;7.224;2023-05-24T15:00:43;17.30;45.50
3660;DHT22;1846;51.482;7.224;2023-05-24T15:03:10;17.30;43.90
3660;DHT22;1846;51.482;7.224;2023-05-24T15:05:38;17.30;43.90
3660;DHT22;1846;51.482;7.224;2023-05-24T15:08:06;17.30;43.00
3660;DHT22;1846;51.482;7.224;2023-05-24T15:10:33;17.20;42.50
3660;DHT22;1846;51.482;7.224;2023-05-24T15:13:03;17.20;42.90
3660;DHT22;1846;51.482;7.224;2023-05-24T15:15:31;17.20;43.10
3660;DHT22;1846;51.482;7.224;2023-05-24T15:17:59;17.30;42.00
3660;DHT22;1846;51.482;7.224;2023-05-24T15:20:26;17.40;43.70
3660;DHT22;1846;51.482;7.224;2023-05-24T15:22:54;17.30;41.10
3660;DHT22;1846;51.482;7.224;2023-05-24T15:25:23;17.20;39.80
3660;DHT22;1846;51.482;7.224;2023-05-24T15:30:17;17.10;39.60
3660;DHT22;1846;51.482;7.224;2023-05-24T15:42:15;17.10;41.80
3660;DHT22;1846;51.482;7.224;2023-05-24T15:44:42;17.20;42.60
3660;DHT22;1846;51.482;7.224;2023-05-24T15:47:09;17.20;42.70
3660;DHT22;1846;51.482;7.224;2023-05-24T15:49:37;17.40;43.50
3660;DHT22;1846;51.482;7.224;2023-05-24T15:58:00;17.80;43.90
3660;DHT22;1846;51.482;7.224;2023-05-24T16:00:27;17.90;44.40
3660;DHT22;1846;51.482;7.224;2023-05-24T16:02:55;17.90;44.10
3660;DHT22;1846;51.482;7.224;2023-05-24T16:05:22;17.80;43.70
3660;DHT22;1846;51.482;7.224;2023-05-24T16:07:51;17.70;42.60
3660;DHT22;1846;51.482;7.224;2023-05-24T16:15:31;17.70;43.00
3660;DHT22;1846;51.482;7.224;2023-05-24T16:23:11;17.40;42.00
3660;DHT22;1846;51.482;7.224;2023-05-24T16:25:38;17.40;41.80
3660;DHT22;1846;51.482;7.224;2023-05-24T16:36:29;17.20;42.20
3660;DHT22;1846;51.482;7.224;2023-05-24T16:39:27;17.20;44.10
3660;DHT22;1846;51.482;7.224;2023-05-24T16:41:54;17.10;43.50
3660;DHT22;1846;51.482;7.224;2023-05-24T16:47:17;17.30;46.30
3660;DHT22;1846;51.482;7.224;2023-05-24T16:54:55;17.20;45.90
3660;DHT22;1846;51.482;7.224;2023-05-24T16:57:23;17.00;46.20
3660;DHT22;1846;51.482;7.224;2023-05-24T17:02:23;16.90;44.70
3660;DHT22;1846;51.482;7.224;2023-05-24T17:04:50;16.80;55.20
3660;DHT22;1846;51.482;7.224;2023-05-24T17:07:17;16.70;47.60
3660;DHT22;1846;51.482;7.224;2023-05-24T17:09:44;16.70;47.90
3660;DHT22;1846;51.482;7.224;2023-05-24T17:12:16;16.70;47.50
3660;DHT22;1846;51.482;7.224;2023-05-24T17:14:43;16.70;47.80
3660;DHT22;1846;51.482;7.224;2023-05-24T17:17:10;16.60;48.30
3660;DHT22;1846;51.482;7.224;2023-05-24T17:19:37;16.60;46.60
3660;DHT22;1846;51.482;7.224;2023-05-24T17:22:05;16.60;47.50
3660;DHT22;1846;51.482;7.224;2023-05-24T17:24:33;16.60;47.90
3660;DHT22;1846;51.482;7.224;2023-05-24T17:27:00;16.60;47.20
3660;DHT22;1846;51.482;7.224;2023-05-24T17:32:06;16.50;48.10
3660;DHT22;1846;51.482;7.224;2023-05-24T17:34:33;16.60;49.30
3660;DHT22;1846;51.482;7.224;2023-05-24T17:37:00;16.60;49.60
3660;DHT22;1846;51.482;7.224;2023-05-24T17:45:19;16.40;50.50
3660;DHT22;1846;51.482;7.224;2023-05-24T17:54:11;16.20;55.90
3660;DHT22;1846;51.482;7.224;2023-05-24T17:56:38;16.10;58.90
3660;DHT22;1846;51.482;7.224;2023-05-24T18:08:11;15.90;66.80
3660;DHT22;1846;51.482;7.224;2023-05-24T18:10:39;15.90;67.60
3660;DHT22;1846;51.482;7.224;2023-05-24T18:13:06;15.80;68.30
3660;DHT22;1846;51.482;7.224;2023-05-24T18:15:34;15.80;71.20
3660;DHT22;1846;51.482;7.224;2023-05-24T18:18:03;15.80;75.00
3660;DHT22;1846;51.482;7.224;2023-05-24T18:20:31;15.80;71.00
3660;DHT22;1846;51.482;7.224;2023-05-24T18:25:34;15.90;70.90
3660;DHT22;1846;51.482;7.224;2023-05-24T18:34:17;15.90;76.00
3660;DHT22;1846;51.482;7.224;2023-05-24T18:36:45;15.90;81.80
3660;DHT22;1846;51.482;7.224;2023-05-24T18:39:12;15.90;82.20
3660;DHT22;1846;51.482;7.224;2023-05-24T18:45:13;15.90;80.90
3660;DHT22;1846;51.482;7.224;2023-05-24T18:47:40;15.80;85.20
3660;DHT22;1846;51.482;7.224;2023-05-24T18:55:41;15.70;91.70
3660;DHT22;1846;51.482;7.224;2023-05-24T19:00:44;15.60;93.00
3660;DHT22;1846;51.482;7.224;2023-05-24T19:03:10;15.60;95.20
3660;DHT22;1846;51.482;7.224;2023-05-24T19:05:37;15.50;96.30
3660;DHT22;1846;51.482;7.224;2023-05-24T19:08:04;15.50;97.90
3660;DHT22;1846;51.482;7.224;2023-05-24T19:10:31;15.50;99.90
3660;DHT22;1846;51.482;7.224;2023-05-24T19:13:00;15.50;99.90
3660;DHT22;1846;51.482;7.224;2023-05-24T19:15:27;15.40;99.90
3660;DHT22;1846;51.482;7.224;2023-05-24T19:17:54;15.40;99.90
3660;DHT22;1846;51.482;7.224;2023-05-24T19:20:22;15.30;99.90
3660;DHT22;1846;51.482;7.224;2023-05-24T19:22:49;15.30;99.90
3660;DHT22;1846;51.482;7.224;2023-05-24T19:25:16;15.30;99.90
3660;DHT22;1846;51.482;7.224;2023-05-24T19:27:44;15.20;99.90
3660;DHT22;1846;51.482;7.224;2023-05-24T19:30:14;15.20;99.90
3660;DHT22;1846;51.482;7.224;2023-05-24T19:32:42;15.20;99.90
3660;DHT22;1846;51.482;7.224;2023-05-24T19:35:09;15.10;99.90
3660;DHT22;1846;51.482;7.224;2023-05-24T19:37:37;15.00;99.90
3660;DHT22;1846;51.482;7.224;2023-05-24T19:40:05;14.90;99.90
3660;DHT22;1846;51.482;7.224;2023-05-24T19:42:32;14.80;99.90
3660;DHT22;1846;51.482;7.224;2023-05-24T19:45:00;14.80;99.90
3660;DHT22;1846;51.482;7.224;2023-05-24T19:47:28;14.70;99.90
3660;DHT22;1846;51.482;7.224;2023-05-24T19:49:55;14.60;99.90
3660;DHT22;1846;51.482;7.224;2023-05-24T19:52:22;14.60;99.90
3660;DHT22;1846;51.482;7.224;2023-05-24T19:54:49;14.50;99.90
3660;DHT22;1846;51.482;7.224;2023-05-24T19:57:16;14.40;99.90
3660;DHT22;1846;51.482;7.224;2023-05-24T19:59:43;14.30;99.90
3660;DHT22;1846;51.482;7.224;2023-05-24T20:02:10;14.20;99.90
3660;DHT22;1846;51.482;7.224;2023-05-24T20:04:39;14.10;99.90
3660;DHT22;1846;51.482;7.224;2023-05-24T20:07:06;14.10;99.90
3660;DHT22;1846;51.482;7.224;2023-05-24T20:09:34;14.00;99.90
3660;DHT22;1846;51.482;7.224;2023-05-24T20:12:01;14.00;99.90
3660;DHT22;1846;51.482;7.224;2023-05-24T20:14:29;13.90;99.90
3660;DHT22;1846;51.482;7.224;2023-05-24T20:16:56;13.80;99.90
3660;DHT22;1846;51.482;7.224;2023-05-24T20:19:23;13.70;99.90
3660;DHT22;1846;51.482;7.224;2023-05-24T20:21:51;13.60;99.90
3660;DHT22;1846;51.482;7.224;2023-05-24T20:24:18;13.50;99.90
3660;DHT22;1846;51.482;7.224;2023-05-24T20:26:45;13.50;99.90
3660;DHT22;1846;51.482;7.224;2023-05-24T20:29:12;13.40;99.90
3660;DHT22;1846;51.482;7.224;2023-05-24T20:31:39;13.40;99.90
3660;DHT22;1846;51.482;7.224;2023-05-24T20:34:07;13.30;99.90
3660;DHT22;1846;51.482;7.224;2023-05-24T20:36:33;13.20;1.00
3660;DHT22;1846;51.482;7.224;2023-05-24T20:39:02;13.10;1.00
3660;DHT22;1846;51.482;7.224;2023-05-24T20:41:29;13.00;1.00
3660;DHT22;1846;51.482;7.224;2023-05-24T20:43:56;12.90;1.00
3660;DHT22;1846;51.482;7.224;2023-05-24T20:46:23;12.80;1.00
3660;DHT22;1846;51.482;7.224;2023-05-24T20:48:50;12.80;99.90
3660;DHT22;1846;51.482;7.224;2023-05-24T20:51:18;12.70;99.90
3660;DHT22;1846;51.482;7.224;2023-05-24T20:53:47;12.70;99.90
3660;DHT22;1846;51.482;7.224;2023-05-24T20:56:19;12.60;99.90
3660;DHT22;1846;51.482;7.224;2023-05-24T20:58:47;12.50;99.90